sensor_id;sensor_type;location;lat;lon;timestamp;temperature;humidity
58161;DHT22;49345;47.428;9.892;2022-09-24T00:00:37;10.70;99.90
58161;DHT22;49345;47.428;9.892;2022-09-24T00:03:03;10.80;99.90
58161;DHT22;49345;47.428;9.892;2022-09-24T00:05:28;10.80;99.90
58161;DHT22;49345;47.428;9.892;2022-09-24T00:07:54;10.90;99.90
58161;DHT22;49345;47.428;9.892;2022-09-24T00:10:19;10.80;99.90
58161;DHT22;49345;47.428;9.892;2022-09-24T00:12:46;10.90;99.90
58161;DHT22;49345;47.428;9.892;2022-09-24T00:15:12;10.90;99.90
58161;DHT22;49345;47.428;9.892;2022-09-24T00:17:37;10.90;99.90
58161;DHT22;49345;47.428;9.892;2022-09-24T00:20:03;11.00;99.90
58161;DHT22;49345;47.428;9.892;2022-09-24T00:22:31;11.00;99.90
58161;DHT22;49345;47.428;9.892;2022-09-24T00:24:56;10.90;99.90
58161;DHT22;49345;47.428;9.892;2022-09-24T00:27:51;10.90;99.90
58161;DHT22;49345;47.428;9.892;2022-09-24T00:30:17;10.90;99.90
58161;DHT22;49345;47.428;9.892;2022-09-24T00:32:43;10.90;99.90
58161;DHT22;49345;47.428;9.892;2022-09-24T00:35:08;10.90;99.90
58161;DHT22;49345;47.428;9.892;2022-09-24T00:37:34;10.90;99.90
58161;DHT22;49345;47.428;9.892;2022-09-24T00:39:59;11.00;99.90
58161;DHT22;49345;47.428;9.892;2022-09-24T00:42:25;10.90;99.90
58161;DHT22;49345;47.428;9.892;2022-09-24T00:44:51;10.90;99.90
58161;DHT22;49345;47.428;9.892;2022-09-24T00:47:27;10.90;99.90
58161;DHT22;49345;47.428;9.892;2022-09-24T00:49:56;10.90;99.90
58161;DHT22;49345;47.428;9.892;2022-09-24T00:52:23;10.90;99.90
58161;DHT22;49345;47.428;9.892;2022-09-24T00:54:48;10.90;99.90
58161;DHT22;49345;47.428;9.892;2022-09-24T00:57:14;10.90;99.90
58161;DHT22;49345;47.428;9.892;2022-09-24T00:59:39;10.80;99.90
58161;DHT22;49345;47.428;9.892;2022-09-24T01:02:06;10.90;99.90
58161;DHT22;49345;47.428;9.892;2022-09-24T01:04:32;10.90;99.90
58161;DHT22;49345;47.428;9.892;2022-09-24T01:06:58;10.90;99.90
58161;DHT22;49345;47.428;9.892;2022-09-24T01:09:24;11.00;99.90
58161;DHT22;49345;47.428;9.892;2022-09-24T01:29:02;11.10;99.90
58161;DHT22;49345;47.428;9.892;2022-09-24T01:31:33;11.20;99.90
58161;DHT22;49345;47.428;9.892;2022-09-24T01:34:00;11.10;99.90
58161;DHT22;49345;47.428;9.892;2022-09-24T01:36:31;11.00;99.90
58161;DHT22;49345;47.428;9.892;2022-09-24T01:38:57;11.00;99.90
58161;DHT22;49345;47.428;9.892;2022-09-24T01:41:23;10.90;99.90
58161;DHT22;49345;47.428;9.892;2022-09-24T01:43:49;10.90;99.90
58161;DHT22;49345;47.428;9.892;2022-09-24T01:46:14;10.90;99.90
58161;DHT22;49345;47.428;9.892;2022-09-24T01:48:43;11.00;99.90
58161;DHT22;49345;47.428;9.892;2022-09-24T01:51:13;11.00;99.90
58161;DHT22;49345;47.428;9.892;2022-09-24T01:53:41;11.00;99.90
58161;DHT22;49345;47.428;9.892;2022-09-24T01:56:10;11.00;99.90
58161;DHT22;49345;47.428;9.892;2022-09-24T01:58:41;11.00;99.90
58161;DHT22;49345;47.428;9.892;2022-09-24T02:01:09;11.00;99.90
58161;DHT22;49345;47.428;9.892;2022-09-24T02:03:38;11.10;99.90
58161;DHT22;49345;47.428;9.892;2022-09-24T02:09:02;11.10;99.90
58161;DHT22;49345;47.428;9.892;2022-09-24T02:11:28;11.10;99.90
58161;DHT22;49345;47.428;9.892;2022-09-24T02:16:52;11.10;99.90
58161;DHT22;49345;47.428;9.892;2022-09-24T02:19:18;11.10;99.90
58161;DHT22;49345;47.428;9.892;2022-09-24T02:21:45;11.20;99.90
58161;DHT22;49345;47.428;9.892;2022-09-24T02:24:13;11.20;99.90
58161;DHT22;49345;47.428;9.892;2022-09-24T02:26:39;11.20;99.90
58161;DHT22;49345;47.428;9.892;2022-09-24T02:29:05;11.20;99.90
58161;DHT22;49345;47.428;9.892;2022-09-24T02:31:31;11.20;99.90
58161;DHT22;49345;47.428;9.892;2022-09-24T02:33:59;11.30;99.90
58161;DHT22;49345;47.428;9.892;2022-09-24T02:36:57;11.30;99.90
58161;DHT22;49345;47.428;9.892;2022-09-24T02:39:24;11.20;99.90
58161;DHT22;49345;47.428;9.892;2022-09-24T02:41:49;11.20;99.90
58161;DHT22;49345;47.428;9.892;2022-09-24T02:44:16;11.20;99.90
58161;DHT22;49345;47.428;9.892;2022-09-24T02:46:43;11.30;99.90
58161;DHT22;49345;47.428;9.892;2022-09-24T02:49:09;11.30;99.90
58161;DHT22;49345;47.428;9.892;2022-09-24T02:51:35;11.30;99.90
58161;DHT22;49345;47.428;9.892;2022-09-24T02:54:00;11.30;99.90
58161;DHT22;49345;47.428;9.892;2022-09-24T02:56:27;11.30;99.90
58161;DHT22;49345;47.428;9.892;2022-09-24T02:58:53;11.30;99.90
58161;DHT22;49345;47.428;9.892;2022-09-24T03:01:19;11.20;99.90
58161;DHT22;49345;47.428;9.892;2022-09-24T03:03:44;11.30;99.90
58161;DHT22;49345;47.428;9.892;2022-09-24T03:06:10;11.30;99.90
58161;DHT22;49345;47.428;9.892;2022-09-24T03:08:38;11.40;99.90
58161;DHT22;49345;47.428;9.892;2022-09-24T03:11:03;11.40;99.90
58161;DHT22;49345;47.428;9.892;2022-09-24T03:13:29;11.40;99.90
58161;DHT22;49345;47.428;9.892;2022-09-24T03:15:55;11.50;99.90
58161;DHT22;49345;47.428;9.892;2022-09-24T03:18:20;11.40;99.90
58161;DHT22;49345;47.428;9.892;2022-09-24T03:23:44;11.40;99.90
58161;DHT22;49345;47.428;9.892;2022-09-24T03:26:10;11.40;99.90
58161;DHT22;49345;47.428;9.892;2022-09-24T03:28:36;11.40;99.90
58161;DHT22;49345;47.428;9.892;2022-09-24T03:31:01;11.40;99.90
58161;DHT22;49345;47.428;9.892;2022-09-24T03:33:28;11.40;99.90
58161;DHT22;49345;47.428;9.892;2022-09-24T03:35:55;11.40;99.90
58161;DHT22;49345;47.428;9.892;2022-09-24T03:38:21;11.30;99.90
58161;DHT22;49345;47.428;9.892;2022-09-24T03:40:46;11.40;99.90
58161;DHT22;49345;47.428;9.892;2022-09-24T03:43:12;11.50;99.90
58161;DHT22;49345;47.428;9.892;2022-09-24T03:45:37;11.60;99.90
58161;DHT22;49345;47.428;9.892;2022-09-24T03:48:03;11.60;99.90
58161;DHT22;49345;47.428;9.892;2022-09-24T03:50:30;11.70;99.90
58161;DHT22;49345;47.428;9.892;2022-09-24T03:52:55;11.60;99.90
58161;DHT22;49345;47.428;9.892;2022-09-24T03:55:21;11.70;99.90
58161;DHT22;49345;47.428;9.892;2022-09-24T03:57:46;11.70;99.90
58161;DHT22;49345;47.428;9.892;2022-09-24T04:00:12;11.70;99.90
58161;DHT22;49345;47.428;9.892;2022-09-24T04:02:38;11.70;99.90
58161;DHT22;49345;47.428;9.892;2022-09-24T04:05:05;11.80;99.90
58161;DHT22;49345;47.428;9.892;2022-09-24T04:07:30;11.70;99.90
58161;DHT22;49345;47.428;9.892;2022-09-24T04:09:56;11.70;99.90
58161;DHT22;49345;47.428;9.892;2022-09-24T04:12:21;11.60;99.90
58161;DHT22;49345;47.428;9.892;2022-09-24T04:14:48;11.60;99.90
58161;DHT22;49345;47.428;9.892;2022-09-24T04:17:13;11.60;99.90
58161;DHT22;49345;47.428;9.892;2022-09-24T04:19:39;11.70;99.90
58161;DHT22;49345;47.428;9.892;2022-09-24T04:22:05;11.60;99.90
58161;DHT22;49345;47.428;9.892;2022-09-24T04:24:30;11.60;99.90
58161;DHT22;49345;47.428;9.892;2022-09-24T04:26:56;11.60;99.90
58161;DHT22;49345;47.428;9.892;2022-09-24T04:29:21;11.50;99.90
58161;DHT22;49345;47.428;9.892;2022-09-24T04:31:47;11.60;99.90
58161;DHT22;49345;47.428;9.892;2022-09-24T04:34:12;11.60;99.90
58161;DHT22;49345;47.428;9.892;2022-09-24T04:36:39;11.70;99.90
58161;DHT22;49345;47.428;9.892;2022-09-24T04:39:04;11.70;99.90
58161;DHT22;49345;47.428;9.892;2022-09-24T04:41:30;11.80;99.90
58161;DHT22;49345;47.428;9.892;2022-09-24T04:43:56;11.70;99.90
58161;DHT22;49345;47.428;9.892;2022-09-24T04:46:22;11.80;99.90
58161;DHT22;49345;47.428;9.892;2022-09-24T04:48:48;11.80;99.90
58161;DHT22;49345;47.428;9.892;2022-09-24T04:51:14;11.80;99.90
58161;DHT22;49345;47.428;9.892;2022-09-24T04:53:41;11.80;99.90
58161;DHT22;49345;47.428;9.892;2022-09-24T04:56:07;11.80;99.90
58161;DHT22;49345;47.428;9.892;2022-09-24T04:58:36;11.90;99.90
58161;DHT22;49345;47.428;9.892;2022-09-24T05:01:02;11.90;99.90
58161;DHT22;49345;47.428;9.892;2022-09-24T05:03:28;11.90;99.90
58161;DHT22;49345;47.428;9.892;2022-09-24T05:05:53;11.90;99.90
58161;DHT22;49345;47.428;9.892;2022-09-24T05:08:19;11.90;99.90
58161;DHT22;49345;47.428;9.892;2022-09-24T05:10:45;11.90;99.90
58161;DHT22;49345;47.428;9.892;2022-09-24T05:13:10;12.00;99.90
58161;DHT22;49345;47.428;9.892;2022-09-24T05:15:36;11.90;99.90
58161;DHT22;49345;47.428;9.892;2022-09-24T05:18:01;11.90;99.90
58161;DHT22;49345;47.428;9.892;2022-09-24T05:20:27;11.80;99.90
58161;DHT22;49345;47.428;9.892;2022-09-24T05:22:52;11.80;99.90
58161;DHT22;49345;47.428;9.892;2022-09-24T05:25:19;11.80;99.90
58161;DHT22;49345;47.428;9.892;2022-09-24T05:27:46;11.80;99.90
58161;DHT22;49345;47.428;9.892;2022-09-24T05:30:12;11.90;99.90
58161;DHT22;49345;47.428;9.892;2022-09-24T05:32:38;11.80;99.90
58161;DHT22;49345;47.428;9.892;2022-09-24T05:35:04;11.80;99.90
58161;DHT22;49345;47.428;9.892;2022-09-24T05:37:32;11.60;99.90
58161;DHT22;49345;47.428;9.892;2022-09-24T05:39:57;11.60;99.90
58161;DHT22;49345;47.428;9.892;2022-09-24T05:42:42;11.60;99.90
58161;DHT22;49345;47.428;9.892;2022-09-24T05:45:08;11.60;99.90
58161;DHT22;49345;47.428;9.892;2022-09-24T05:47:34;11.70;99.90
58161;DHT22;49345;47.428;9.892;2022-09-24T05:49:59;11.70;99.90
58161;DHT22;49345;47.428;9.892;2022-09-24T05:52:25;11.70;99.90
58161;DHT22;49345;47.428;9.892;2022-09-24T05:54:50;11.80;99.90
58161;DHT22;49345;47.428;9.892;2022-09-24T05:57:16;11.80;99.90
58161;DHT22;49345;47.428;9.892;2022-09-24T05:59:41;11.90;99.90
58161;DHT22;49345;47.428;9.892;2022-09-24T06:02:07;11.90;99.90
58161;DHT22;49345;47.428;9.892;2022-09-24T06:04:33;11.90;99.90
58161;DHT22;49345;47.428;9.892;2022-09-24T06:06:58;11.90;99.90
58161;DHT22;49345;47.428;9.892;2022-09-24T06:09:24;11.90;99.90
58161;DHT22;49345;47.428;9.892;2022-09-24T06:11:49;12.00;99.90
58161;DHT22;49345;47.428;9.892;2022-09-24T06:14:18;12.00;99.90
58161;DHT22;49345;47.428;9.892;2022-09-24T06:16:43;12.00;99.90
58161;DHT22;49345;47.428;9.892;2022-09-24T06:19:09;12.00;99.90
58161;DHT22;49345;47.428;9.892;2022-09-24T06:21:34;12.00;99.90
58161;DHT22;49345;47.428;9.892;2022-09-24T06:24:00;12.10;99.90
58161;DHT22;49345;47.428;9.892;2022-09-24T06:26:26;12.20;99.90
58161;DHT22;49345;47.428;9.892;2022-09-24T06:28:52;12.20;99.90
58161;DHT22;49345;47.428;9.892;2022-09-24T06:31:18;12.30;99.90
58161;DHT22;49345;47.428;9.892;2022-09-24T06:33:44;12.30;99.90
58161;DHT22;49345;47.428;9.892;2022-09-24T06:36:10;12.40;99.90
58161;DHT22;49345;47.428;9.892;2022-09-24T06:38:35;12.40;99.90
58161;DHT22;49345;47.428;9.892;2022-09-24T06:41:03;12.40;99.90
58161;DHT22;49345;47.428;9.892;2022-09-24T06:43:29;12.50;99.90
58161;DHT22;49345;47.428;9.892;2022-09-24T06:45:55;12.50;99.90
58161;DHT22;49345;47.428;9.892;2022-09-24T06:48:21;12.50;99.90
58161;DHT22;49345;47.428;9.892;2022-09-24T06:50:47;12.40;99.90
58161;DHT22;49345;47.428;9.892;2022-09-24T06:53:12;12.50;99.90
58161;DHT22;49345;47.428;9.892;2022-09-24T06:55:38;12.40;99.90
58161;DHT22;49345;47.428;9.892;2022-09-24T07:00:53;12.40;99.90
58161;DHT22;49345;47.428;9.892;2022-09-24T07:03:19;12.40;99.90
58161;DHT22;49345;47.428;9.892;2022-09-24T07:05:44;12.40;99.90
58161;DHT22;49345;47.428;9.892;2022-09-24T07:08:10;12.40;99.90
58161;DHT22;49345;47.428;9.892;2022-09-24T07:10:36;12.50;99.90
58161;DHT22;49345;47.428;9.892;2022-09-24T07:13:04;12.50;99.90
58161;DHT22;49345;47.428;9.892;2022-09-24T07:15:30;12.60;99.90
58161;DHT22;49345;47.428;9.892;2022-09-24T07:17:56;12.60;99.90
58161;DHT22;49345;47.428;9.892;2022-09-24T07:20:22;12.60;99.90
58161;DHT22;49345;47.428;9.892;2022-09-24T07:22:47;12.70;99.90
58161;DHT22;49345;47.428;9.892;2022-09-24T07:25:13;12.80;99.90
58161;DHT22;49345;47.428;9.892;2022-09-24T07:27:39;12.60;99.90
58161;DHT22;49345;47.428;9.892;2022-09-24T07:30:05;12.70;99.90
58161;DHT22;49345;47.428;9.892;2022-09-24T07:32:30;12.70;99.90
58161;DHT22;49345;47.428;9.892;2022-09-24T07:34:56;12.70;99.90
58161;DHT22;49345;47.428;9.892;2022-09-24T07:37:21;12.80;99.90
58161;DHT22;49345;47.428;9.892;2022-09-24T07:39:47;12.80;99.90
58161;DHT22;49345;47.428;9.892;2022-09-24T07:42:12;12.80;99.90
58161;DHT22;49345;47.428;9.892;2022-09-24T07:44:38;12.80;99.90
58161;DHT22;49345;47.428;9.892;2022-09-24T07:47:03;12.90;99.90
58161;DHT22;49345;47.428;9.892;2022-09-24T07:49:30;12.90;99.90
58161;DHT22;49345;47.428;9.892;2022-09-24T07:51:57;13.00;99.90
58161;DHT22;49345;47.428;9.892;2022-09-24T07:54:23;13.00;99.90
58161;DHT22;49345;47.428;9.892;2022-09-24T07:56:48;13.00;99.90
58161;DHT22;49345;47.428;9.892;2022-09-24T07:59:14;13.00;99.90
58161;DHT22;49345;47.428;9.892;2022-09-24T08:01:39;13.00;99.90
58161;DHT22;49345;47.428;9.892;2022-09-24T08:04:05;13.00;99.90
58161;DHT22;49345;47.428;9.892;2022-09-24T08:06:34;13.00;99.90
58161;DHT22;49345;47.428;9.892;2022-09-24T08:09:00;13.00;99.90
58161;DHT22;49345;47.428;9.892;2022-09-24T08:11:26;13.00;99.90
58161;DHT22;49345;47.428;9.892;2022-09-24T08:13:52;13.00;99.90
58161;DHT22;49345;47.428;9.892;2022-09-24T08:16:17;13.00;99.90
58161;DHT22;49345;47.428;9.892;2022-09-24T08:18:45;13.10;99.90
58161;DHT22;49345;47.428;9.892;2022-09-24T08:21:11;13.10;99.90
58161;DHT22;49345;47.428;9.892;2022-09-24T08:23:38;13.10;99.90
58161;DHT22;49345;47.428;9.892;2022-09-24T08:26:04;13.10;99.90
58161;DHT22;49345;47.428;9.892;2022-09-24T08:28:30;13.20;99.90
58161;DHT22;49345;47.428;9.892;2022-09-24T08:30:57;13.20;99.90
58161;DHT22;49345;47.428;9.892;2022-09-24T08:33:23;13.20;99.90
58161;DHT22;49345;47.428;9.892;2022-09-24T08:35:48;13.30;99.90
58161;DHT22;49345;47.428;9.892;2022-09-24T08:38:14;13.40;99.90
58161;DHT22;49345;47.428;9.892;2022-09-24T08:40:44;13.60;99.90
58161;DHT22;49345;47.428;9.892;2022-09-24T08:43:22;13.70;99.90
58161;DHT22;49345;47.428;9.892;2022-09-24T08:45:54;13.80;99.90
58161;DHT22;49345;47.428;9.892;2022-09-24T08:48:51;13.80;99.90
58161;DHT22;49345;47.428;9.892;2022-09-24T08:51:18;13.90;99.90
58161;DHT22;49345;47.428;9.892;2022-09-24T08:56:26;14.00;99.90
58161;DHT22;49345;47.428;9.892;2022-09-24T08:59:01;14.20;99.90
58161;DHT22;49345;47.428;9.892;2022-09-24T09:09:40;14.60;99.90
58161;DHT22;49345;47.428;9.892;2022-09-24T09:12:09;14.70;99.90
58161;DHT22;49345;47.428;9.892;2022-09-24T09:17:33;15.00;99.90
58161;DHT22;49345;47.428;9.892;2022-09-24T09:20:00;15.10;99.90
58161;DHT22;49345;47.428;9.892;2022-09-24T09:22:28;15.20;99.90
58161;DHT22;49345;47.428;9.892;2022-09-24T09:24:57;15.40;99.90
58161;DHT22;49345;47.428;9.892;2022-09-24T09:27:24;15.50;99.90
58161;DHT22;49345;47.428;9.892;2022-09-24T09:29:53;15.70;99.90
58161;DHT22;49345;47.428;9.892;2022-09-24T09:37:56;16.10;99.90
58161;DHT22;49345;47.428;9.892;2022-09-24T09:40:32;16.20;99.90
58161;DHT22;49345;47.428;9.892;2022-09-24T09:43:02;16.20;99.90
58161;DHT22;49345;47.428;9.892;2022-09-24T09:48:10;16.20;99.90
58161;DHT22;49345;47.428;9.892;2022-09-24T09:50:45;16.20;99.90
58161;DHT22;49345;47.428;9.892;2022-09-24T09:53:20;16.30;99.90
58161;DHT22;49345;47.428;9.892;2022-09-24T09:55:54;16.40;99.90
58161;DHT22;49345;47.428;9.892;2022-09-24T09:58:22;16.50;99.90
58161;DHT22;49345;47.428;9.892;2022-09-24T10:00:48;16.50;99.90
58161;DHT22;49345;47.428;9.892;2022-09-24T10:03:21;16.60;99.90
58161;DHT22;49345;47.428;9.892;2022-09-24T10:05:52;16.70;99.90
58161;DHT22;49345;47.428;9.892;2022-09-24T10:08:19;16.80;99.90
58161;DHT22;49345;47.428;9.892;2022-09-24T10:10:50;16.90;99.90
58161;DHT22;49345;47.428;9.892;2022-09-24T10:13:19;17.00;99.90
58161;DHT22;49345;47.428;9.892;2022-09-24T10:15:49;17.00;99.90
58161;DHT22;49345;47.428;9.892;2022-09-24T10:18:15;17.10;99.90
58161;DHT22;49345;47.428;9.892;2022-09-24T10:20:44;17.10;99.90
58161;DHT22;49345;47.428;9.892;2022-09-24T10:23:13;17.10;99.90
58161;DHT22;49345;47.428;9.892;2022-09-24T10:25:47;17.10;99.90
58161;DHT22;49345;47.428;9.892;2022-09-24T10:28:16;17.10;99.90
58161;DHT22;49345;47.428;9.892;2022-09-24T10:31:13;17.20;99.90
58161;DHT22;49345;47.428;9.892;2022-09-24T10:33:42;17.20;99.90
58161;DHT22;49345;47.428;9.892;2022-09-24T10:36:13;17.30;99.90
58161;DHT22;49345;47.428;9.892;2022-09-24T10:38:39;17.40;99.90
58161;DHT22;49345;47.428;9.892;2022-09-24T10:41:13;17.40;99.90
58161;DHT22;49345;47.428;9.892;2022-09-24T10:43:38;17.50;99.90
58161;DHT22;49345;47.428;9.892;2022-09-24T10:48:49;17.50;99.90
58161;DHT22;49345;47.428;9.892;2022-09-24T10:51:23;17.40;99.90
58161;DHT22;49345;47.428;9.892;2022-09-24T10:53:54;17.40;99.90
58161;DHT22;49345;47.428;9.892;2022-09-24T10:56:25;17.40;99.90
58161;DHT22;49345;47.428;9.892;2022-09-24T11:07:06;17.30;99.90
58161;DHT22;49345;47.428;9.892;2022-09-24T11:12:21;17.30;99.90
58161;DHT22;49345;47.428;9.892;2022-09-24T11:20:15;17.10;99.90
58161;DHT22;49345;47.428;9.892;2022-09-24T11:22:53;17.10;99.90
58161;DHT22;49345;47.428;9.892;2022-09-24T11:28:05;17.10;99.90
58161;DHT22;49345;47.428;9.892;2022-09-24T11:30:49;17.20;99.90
58161;DHT22;49345;47.428;9.892;2022-09-24T11:33:21;17.20;99.90
58161;DHT22;49345;47.428;9.892;2022-09-24T11:38:50;17.40;99.90
58161;DHT22;49345;47.428;9.892;2022-09-24T11:41:22;17.30;99.90
58161;DHT22;49345;47.428;9.892;2022-09-24T11:52:30;17.40;99.90
58161;DHT22;49345;47.428;9.892;2022-09-24T11:57:59;17.40;99.90
58161;DHT22;49345;47.428;9.892;2022-09-24T12:00:31;17.40;99.90
58161;DHT22;49345;47.428;9.892;2022-09-24T12:05:57;17.40;99.90
58161;DHT22;49345;47.428;9.892;2022-09-24T12:08:27;17.30;99.90
58161;DHT22;49345;47.428;9.892;2022-09-24T12:13:44;17.10;99.90
58161;DHT22;49345;47.428;9.892;2022-09-24T12:16:10;17.10;99.90
58161;DHT22;49345;47.428;9.892;2022-09-24T12:18:39;17.00;99.90
58161;DHT22;49345;47.428;9.892;2022-09-24T12:21:08;17.00;99.90
58161;DHT22;49345;47.428;9.892;2022-09-24T12:23:36;17.00;99.90
58161;DHT22;49345;47.428;9.892;2022-09-24T12:26:04;17.00;99.90
58161;DHT22;49345;47.428;9.892;2022-09-24T12:28:34;17.00;99.90
58161;DHT22;49345;47.428;9.892;2022-09-24T12:31:36;17.00;99.90
58161;DHT22;49345;47.428;9.892;2022-09-24T12:37:20;17.10;99.90
58161;DHT22;49345;47.428;9.892;2022-09-24T12:39:49;17.00;99.90
58161;DHT22;49345;47.428;9.892;2022-09-24T12:42:19;17.10;99.90
58161;DHT22;49345;47.428;9.892;2022-09-24T12:44:50;17.10;99.90
58161;DHT22;49345;47.428;9.892;2022-09-24T12:47:20;17.00;99.90
58161;DHT22;49345;47.428;9.892;2022-09-24T12:49:48;17.10;99.90
58161;DHT22;49345;47.428;9.892;2022-09-24T12:52:16;17.10;99.90
58161;DHT22;49345;47.428;9.892;2022-09-24T12:54:42;17.00;99.90
58161;DHT22;49345;47.428;9.892;2022-09-24T12:57:16;17.00;99.90
58161;DHT22;49345;47.428;9.892;2022-09-24T12:59:45;17.00;99.90
58161;DHT22;49345;47.428;9.892;2022-09-24T13:02:13;17.00;99.90
58161;DHT22;49345;47.428;9.892;2022-09-24T13:04:42;17.00;99.90
58161;DHT22;49345;47.428;9.892;2022-09-24T13:13:01;16.90;99.90
58161;DHT22;49345;47.428;9.892;2022-09-24T13:18:22;16.80;99.90
58161;DHT22;49345;47.428;9.892;2022-09-24T13:23:46;16.60;99.90
58161;DHT22;49345;47.428;9.892;2022-09-24T13:26:13;16.50;99.90
58161;DHT22;49345;47.428;9.892;2022-09-24T13:28:51;16.40;99.90
58161;DHT22;49345;47.428;9.892;2022-09-24T13:34:18;16.40;99.90
58161;DHT22;49345;47.428;9.892;2022-09-24T13:42:28;16.30;99.90
58161;DHT22;49345;47.428;9.892;2022-09-24T13:44:56;16.30;99.90
58161;DHT22;49345;47.428;9.892;2022-09-24T13:55:30;16.20;99.90
58161;DHT22;49345;47.428;9.892;2022-09-24T13:57:57;16.20;99.90
58161;DHT22;49345;47.428;9.892;2022-09-24T14:00:24;16.30;99.90
58161;DHT22;49345;47.428;9.892;2022-09-24T14:02:53;16.30;99.90
58161;DHT22;49345;47.428;9.892;2022-09-24T14:05:20;16.30;99.90
58161;DHT22;49345;47.428;9.892;2022-09-24T14:07:54;16.30;99.90
58161;DHT22;49345;47.428;9.892;2022-09-24T14:10:20;16.30;99.90
58161;DHT22;49345;47.428;9.892;2022-09-24T14:18:40;16.20;99.90
58161;DHT22;49345;47.428;9.892;2022-09-24T14:26:30;16.10;99.90
58161;DHT22;49345;47.428;9.892;2022-09-24T14:28:57;16.20;99.90
58161;DHT22;49345;47.428;9.892;2022-09-24T14:31:24;16.20;99.90
58161;DHT22;49345;47.428;9.892;2022-09-24T14:33:49;16.20;99.90
58161;DHT22;49345;47.428;9.892;2022-09-24T14:36:15;16.10;99.90
58161;DHT22;49345;47.428;9.892;2022-09-24T14:38:47;16.00;99.90
58161;DHT22;49345;47.428;9.892;2022-09-24T14:41:14;16.00;99.90
58161;DHT22;49345;47.428;9.892;2022-09-24T14:43:45;16.00;99.90
58161;DHT22;49345;47.428;9.892;2022-09-24T14:49:02;15.90;99.90
58161;DHT22;49345;47.428;9.892;2022-09-24T14:51:28;15.90;99.90
58161;DHT22;49345;47.428;9.892;2022-09-24T14:56:37;16.00;99.90
58161;DHT22;49345;47.428;9.892;2022-09-24T14:59:11;16.00;99.90
58161;DHT22;49345;47.428;9.892;2022-09-24T15:01:37;16.10;99.90
58161;DHT22;49345;47.428;9.892;2022-09-24T15:04:03;16.10;99.90
58161;DHT22;49345;47.428;9.892;2022-09-24T15:06:30;16.20;99.90
58161;DHT22;49345;47.428;9.892;2022-09-24T15:08:57;16.20;99.90
58161;DHT22;49345;47.428;9.892;2022-09-24T15:11:25;16.20;99.90
58161;DHT22;49345;47.428;9.892;2022-09-24T15:14:00;16.20;99.90
58161;DHT22;49345;47.428;9.892;2022-09-24T15:16:27;16.20;99.90
58161;DHT22;49345;47.428;9.892;2022-09-24T15:18:56;16.10;99.90
58161;DHT22;49345;47.428;9.892;2022-09-24T15:21:22;16.00;99.90
58161;DHT22;49345;47.428;9.892;2022-09-24T15:23:47;16.00;99.90
58161;DHT22;49345;47.428;9.892;2022-09-24T15:26:13;16.00;99.90
58161;DHT22;49345;47.428;9.892;2022-09-24T15:28:39;16.00;99.90
58161;DHT22;49345;47.428;9.892;2022-09-24T15:31:04;16.10;99.90
58161;DHT22;49345;47.428;9.892;2022-09-24T15:33:30;16.10;99.90
58161;DHT22;49345;47.428;9.892;2022-09-24T15:35:55;16.10;99.90
58161;DHT22;49345;47.428;9.892;2022-09-24T15:38:21;16.00;99.90
58161;DHT22;49345;47.428;9.892;2022-09-24T15:40:46;15.90;99.90
58161;DHT22;49345;47.428;9.892;2022-09-24T15:43:20;15.90;99.90
58161;DHT22;49345;47.428;9.892;2022-09-24T15:45:45;15.80;99.90
58161;DHT22;49345;47.428;9.892;2022-09-24T15:48:11;15.80;99.90
58161;DHT22;49345;47.428;9.892;2022-09-24T15:50:38;15.80;99.90
58161;DHT22;49345;47.428;9.892;2022-09-24T15:53:03;15.80;99.90
58161;DHT22;49345;47.428;9.892;2022-09-24T15:55:29;15.70;99.90
58161;DHT22;49345;47.428;9.892;2022-09-24T15:57:55;15.70;99.90
58161;DHT22;49345;47.428;9.892;2022-09-24T16:00:23;15.60;99.90
58161;DHT22;49345;47.428;9.892;2022-09-24T16:02:50;15.60;99.90
58161;DHT22;49345;47.428;9.892;2022-09-24T16:05:17;15.60;99.90
58161;DHT22;49345;47.428;9.892;2022-09-24T16:07:43;15.60;99.90
58161;DHT22;49345;47.428;9.892;2022-09-24T16:10:09;15.50;99.90
58161;DHT22;49345;47.428;9.892;2022-09-24T16:12:35;15.60;99.90
58161;DHT22;49345;47.428;9.892;2022-09-24T16:15:01;15.60;99.90
58161;DHT22;49345;47.428;9.892;2022-09-24T16:17:27;15.60;99.90
58161;DHT22;49345;47.428;9.892;2022-09-24T16:19:52;15.60;99.90
58161;DHT22;49345;47.428;9.892;2022-09-24T16:22:18;15.50;99.90
58161;DHT22;49345;47.428;9.892;2022-09-24T16:24:43;15.50;99.90
58161;DHT22;49345;47.428;9.892;2022-09-24T16:27:09;15.50;99.90
58161;DHT22;49345;47.428;9.892;2022-09-24T16:29:35;15.50;99.90
58161;DHT22;49345;47.428;9.892;2022-09-24T16:32:00;15.40;99.90
58161;DHT22;49345;47.428;9.892;2022-09-24T16:34:26;15.40;99.90
58161;DHT22;49345;47.428;9.892;2022-09-24T16:36:52;15.40;99.90
58161;DHT22;49345;47.428;9.892;2022-09-24T16:39:18;15.30;99.90
58161;DHT22;49345;47.428;9.892;2022-09-24T16:41:46;15.30;99.90
58161;DHT22;49345;47.428;9.892;2022-09-24T16:44:12;15.20;99.90
58161;DHT22;49345;47.428;9.892;2022-09-24T16:46:39;15.20;99.90
58161;DHT22;49345;47.428;9.892;2022-09-24T16:49:05;15.20;99.90
58161;DHT22;49345;47.428;9.892;2022-09-24T16:51:30;15.20;99.90
58161;DHT22;49345;47.428;9.892;2022-09-24T16:53:56;15.10;99.90
58161;DHT22;49345;47.428;9.892;2022-09-24T16:56:21;15.10;99.90
58161;DHT22;49345;47.428;9.892;2022-09-24T16:58:47;15.00;99.90
58161;DHT22;49345;47.428;9.892;2022-09-24T17:01:14;14.90;99.90
58161;DHT22;49345;47.428;9.892;2022-09-24T17:03:40;14.90;99.90
58161;DHT22;49345;47.428;9.892;2022-09-24T17:06:06;14.90;99.90
58161;DHT22;49345;47.428;9.892;2022-09-24T17:08:33;14.80;99.90
58161;DHT22;49345;47.428;9.892;2022-09-24T17:11:30;14.70;99.90
58161;DHT22;49345;47.428;9.892;2022-09-24T17:13:55;14.60;99.90
58161;DHT22;49345;47.428;9.892;2022-09-24T17:16:21;14.50;99.90
58161;DHT22;49345;47.428;9.892;2022-09-24T17:18:49;14.40;99.90
58161;DHT22;49345;47.428;9.892;2022-09-24T17:21:15;14.40;99.90
58161;DHT22;49345;47.428;9.892;2022-09-24T17:23:42;14.40;99.90
58161;DHT22;49345;47.428;9.892;2022-09-24T17:26:09;14.40;99.90
58161;DHT22;49345;47.428;9.892;2022-09-24T17:28:37;14.30;99.90
58161;DHT22;49345;47.428;9.892;2022-09-24T17:31:03;14.30;99.90
58161;DHT22;49345;47.428;9.892;2022-09-24T17:33:28;14.30;99.90
58161;DHT22;49345;47.428;9.892;2022-09-24T17:35:55;14.30;99.90
58161;DHT22;49345;47.428;9.892;2022-09-24T17:38:20;14.30;99.90
58161;DHT22;49345;47.428;9.892;2022-09-24T17:40:55;14.30;99.90
58161;DHT22;49345;47.428;9.892;2022-09-24T17:43:20;14.20;99.90
58161;DHT22;49345;47.428;9.892;2022-09-24T17:48:43;14.20;99.90
58161;DHT22;49345;47.428;9.892;2022-09-24T17:51:10;14.10;99.90
58161;DHT22;49345;47.428;9.892;2022-09-24T17:53:36;14.10;99.90
58161;DHT22;49345;47.428;9.892;2022-09-24T17:56:02;14.10;99.90